Terminal Aerodrome Forecast
Issued by NWS

Home | Current Version | Previous Version | Text Only | Print | Product List | Glossary On
Versions: 1 2 3 4 5 6 7 8 9 10 11 12 13 14 15 16 17 18
660
FTUS46 KMFR 171750
TAFOTH
TAF
KOTH 171750Z 1718/1818 21010KT 3SM -RA BKN007 OVC020
     FM171900 24013G20KT 3SM -RA BKN007 OVC020
     FM172300 26015G30KT P6SM -SHRA OVC020
     FM180600 24013G20KT 3SM RA BR BKN010 OVC015=

USA.gov is the U.S. government's official web portal to all federal, state and local government web resources and services.